sensor_id;sensor_type;location;lat;lon;timestamp;P1;durP1;ratioP1;P2;durP2;ratioP2
2762;SDS011;1389;51.490;7.338;2024-03-23T00:54:01;1999.90;;;999.90;;
2762;SDS011;1389;51.490;7.338;2024-03-23T00:56:29;1999.90;;;999.90;;
2762;SDS011;1389;51.490;7.338;2024-03-23T00:58:55;1999.90;;;999.90;;
2762;SDS011;1389;51.490;7.338;2024-03-23T01:01:22;1999.90;;;999.90;;
2762;SDS011;1389;51.490;7.338;2024-03-23T01:03:48;1999.90;;;999.90;;
2762;SDS011;1389;51.490;7.338;2024-03-23T01:06:14;1999.90;;;999.90;;
2762;SDS011;1389;51.490;7.338;2024-03-23T01:08:41;1999.90;;;999.90;;
2762;SDS011;1389;51.490;7.338;2024-03-23T01:11:07;1999.90;;;999.90;;
2762;SDS011;1389;51.490;7.338;2024-03-23T01:13:34;1999.90;;;999.90;;
2762;SDS011;1389;51.490;7.338;2024-03-23T01:16:00;1999.90;;;999.90;;
2762;SDS011;1389;51.490;7.338;2024-03-23T01:18:27;1999.90;;;999.90;;
2762;SDS011;1389;51.490;7.338;2024-03-23T01:20:54;1999.90;;;999.90;;
2762;SDS011;1389;51.490;7.338;2024-03-23T01:23:20;1999.90;;;999.90;;
2762;SDS011;1389;51.490;7.338;2024-03-23T01:25:53;1999.90;;;999.90;;
2762;SDS011;1389;51.490;7.338;2024-03-23T01:28:20;1999.90;;;999.90;;
2762;SDS011;1389;51.490;7.338;2024-03-23T01:30:46;1999.90;;;999.90;;
2762;SDS011;1389;51.490;7.338;2024-03-23T01:33:13;1999.90;;;999.90;;
2762;SDS011;1389;51.490;7.338;2024-03-23T01:35:40;1999.90;;;999.90;;
2762;SDS011;1389;51.490;7.338;2024-03-23T01:38:07;1999.90;;;999.90;;
2762;SDS011;1389;51.490;7.338;2024-03-23T01:40:33;1999.90;;;999.90;;
2762;SDS011;1389;51.490;7.338;2024-03-23T01:43:09;1999.90;;;999.90;;
2762;SDS011;1389;51.490;7.338;2024-03-23T01:45:35;1999.90;;;999.90;;
2762;SDS011;1389;51.490;7.338;2024-03-23T01:48:02;1999.90;;;999.90;;
2762;SDS011;1389;51.490;7.338;2024-03-23T01:50:29;1999.90;;;999.90;;
2762;SDS011;1389;51.490;7.338;2024-03-23T01:53:00;1999.90;;;999.90;;
2762;SDS011;1389;51.490;7.338;2024-03-23T01:55:28;1999.90;;;999.90;;
2762;SDS011;1389;51.490;7.338;2024-03-23T01:57:56;1999.90;;;999.90;;
2762;SDS011;1389;51.490;7.338;2024-03-23T02:00:23;1999.90;;;999.90;;
2762;SDS011;1389;51.490;7.338;2024-03-23T02:02:50;1999.90;;;999.90;;
2762;SDS011;1389;51.490;7.338;2024-03-23T02:05:16;1999.90;;;999.90;;
2762;SDS011;1389;51.490;7.338;2024-03-23T02:07:42;1999.90;;;999.90;;
2762;SDS011;1389;51.490;7.338;2024-03-23T02:10:10;1999.90;;;999.90;;
2762;SDS011;1389;51.490;7.338;2024-03-23T02:12:38;1999.90;;;999.90;;
2762;SDS011;1389;51.490;7.338;2024-03-23T02:15:05;1999.90;;;999.90;;
2762;SDS011;1389;51.490;7.338;2024-03-23T02:17:32;1999.90;;;999.90;;
2762;SDS011;1389;51.490;7.338;2024-03-23T02:19:59;1999.90;;;999.90;;
2762;SDS011;1389;51.490;7.338;2024-03-23T02:22:35;1999.90;;;999.90;;
2762;SDS011;1389;51.490;7.338;2024-03-23T02:25:02;1999.90;;;999.90;;
2762;SDS011;1389;51.490;7.338;2024-03-23T02:27:28;1999.90;;;999.90;;
2762;SDS011;1389;51.490;7.338;2024-03-23T02:29:54;1999.90;;;999.90;;
2762;SDS011;1389;51.490;7.338;2024-03-23T02:32:21;1999.90;;;999.90;;
2762;SDS011;1389;51.490;7.338;2024-03-23T02:34:47;1999.90;;;999.90;;
2762;SDS011;1389;51.490;7.338;2024-03-23T02:37:14;1999.90;;;999.90;;
2762;SDS011;1389;51.490;7.338;2024-03-23T02:39:40;1999.90;;;999.90;;
2762;SDS011;1389;51.490;7.338;2024-03-23T02:42:07;1999.90;;;999.90;;
2762;SDS011;1389;51.490;7.338;2024-03-23T02:44:33;1999.90;;;999.90;;
2762;SDS011;1389;51.490;7.338;2024-03-23T02:46:59;1999.90;;;999.90;;
2762;SDS011;1389;51.490;7.338;2024-03-23T02:49:26;1999.90;;;999.90;;
2762;SDS011;1389;51.490;7.338;2024-03-23T02:51:53;1999.90;;;999.90;;
2762;SDS011;1389;51.490;7.338;2024-03-23T02:54:19;1999.90;;;999.90;;
2762;SDS011;1389;51.490;7.338;2024-03-23T02:56:47;1999.90;;;999.90;;
2762;SDS011;1389;51.490;7.338;2024-03-23T02:59:13;1999.90;;;999.90;;
2762;SDS011;1389;51.490;7.338;2024-03-23T03:01:39;1999.90;;;999.90;;
2762;SDS011;1389;51.490;7.338;2024-03-23T03:04:06;1999.90;;;999.90;;
2762;SDS011;1389;51.490;7.338;2024-03-23T03:06:32;1999.90;;;999.90;;
2762;SDS011;1389;51.490;7.338;2024-03-23T03:08:59;1999.90;;;999.90;;
2762;SDS011;1389;51.490;7.338;2024-03-23T03:11:25;1999.90;;;999.90;;
2762;SDS011;1389;51.490;7.338;2024-03-23T03:13:52;1999.90;;;999.90;;
2762;SDS011;1389;51.490;7.338;2024-03-23T03:16:18;1999.90;;;999.90;;
2762;SDS011;1389;51.490;7.338;2024-03-23T03:18:44;1999.90;;;999.90;;
2762;SDS011;1389;51.490;7.338;2024-03-23T03:21:12;1999.90;;;999.90;;
2762;SDS011;1389;51.490;7.338;2024-03-23T03:23:38;1999.90;;;999.90;;
2762;SDS011;1389;51.490;7.338;2024-03-23T03:26:05;1999.90;;;999.90;;
2762;SDS011;1389;51.490;7.338;2024-03-23T03:28:32;1999.90;;;999.90;;
2762;SDS011;1389;51.490;7.338;2024-03-23T03:31:00;1999.90;;;999.90;;
2762;SDS011;1389;51.490;7.338;2024-03-23T03:33:29;1999.90;;;999.90;;
2762;SDS011;1389;51.490;7.338;2024-03-23T03:35:56;1999.90;;;999.90;;
2762;SDS011;1389;51.490;7.338;2024-03-23T03:38:22;1999.90;;;999.90;;
2762;SDS011;1389;51.490;7.338;2024-03-23T03:40:48;1999.90;;;999.90;;
2762;SDS011;1389;51.490;7.338;2024-03-23T03:43:15;1999.90;;;999.90;;
2762;SDS011;1389;51.490;7.338;2024-03-23T03:45:42;1999.90;;;999.90;;
2762;SDS011;1389;51.490;7.338;2024-03-23T03:48:08;1999.90;;;999.90;;
2762;SDS011;1389;51.490;7.338;2024-03-23T03:50:35;1999.90;;;999.90;;
2762;SDS011;1389;51.490;7.338;2024-03-23T03:53:01;1999.90;;;999.90;;
2762;SDS011;1389;51.490;7.338;2024-03-23T03:55:28;1999.90;;;999.90;;
2762;SDS011;1389;51.490;7.338;2024-03-23T03:57:54;1999.90;;;999.90;;
2762;SDS011;1389;51.490;7.338;2024-03-23T04:00:20;1999.90;;;999.90;;
2762;SDS011;1389;51.490;7.338;2024-03-23T04:02:47;1999.90;;;999.90;;
2762;SDS011;1389;51.490;7.338;2024-03-23T04:05:13;1999.90;;;999.90;;
2762;SDS011;1389;51.490;7.338;2024-03-23T04:07:41;1999.90;;;999.90;;
2762;SDS011;1389;51.490;7.338;2024-03-23T04:10:08;1999.90;;;999.90;;
2762;SDS011;1389;51.490;7.338;2024-03-23T04:12:34;1999.90;;;999.90;;
2762;SDS011;1389;51.490;7.338;2024-03-23T04:15:01;1999.90;;;999.90;;
2762;SDS011;1389;51.490;7.338;2024-03-23T04:17:30;1999.90;;;999.90;;
2762;SDS011;1389;51.490;7.338;2024-03-23T04:19:58;1999.90;;;999.90;;
2762;SDS011;1389;51.490;7.338;2024-03-23T04:22:24;1999.90;;;999.90;;
2762;SDS011;1389;51.490;7.338;2024-03-23T04:24:55;1999.90;;;999.90;;
2762;SDS011;1389;51.490;7.338;2024-03-23T04:27:26;1999.90;;;999.90;;
2762;SDS011;1389;51.490;7.338;2024-03-23T04:29:53;1999.90;;;999.90;;
2762;SDS011;1389;51.490;7.338;2024-03-23T04:32:19;1999.90;;;999.90;;
2762;SDS011;1389;51.490;7.338;2024-03-23T04:34:46;1999.90;;;999.90;;
2762;SDS011;1389;51.490;7.338;2024-03-23T04:37:12;1999.90;;;999.90;;
2762;SDS011;1389;51.490;7.338;2024-03-23T04:39:39;1999.90;;;999.90;;
2762;SDS011;1389;51.490;7.338;2024-03-23T04:42:06;1999.90;;;999.90;;
2762;SDS011;1389;51.490;7.338;2024-03-23T04:44:33;1999.90;;;999.90;;
2762;SDS011;1389;51.490;7.338;2024-03-23T04:47:02;1999.90;;;999.90;;
2762;SDS011;1389;51.490;7.338;2024-03-23T04:49:30;1999.90;;;999.90;;
2762;SDS011;1389;51.490;7.338;2024-03-23T04:51:57;1999.90;;;999.90;;
2762;SDS011;1389;51.490;7.338;2024-03-23T04:54:23;1999.90;;;999.90;;
2762;SDS011;1389;51.490;7.338;2024-03-23T04:56:50;1999.90;;;999.90;;
2762;SDS011;1389;51.490;7.338;2024-03-23T04:59:16;1999.90;;;999.90;;
2762;SDS011;1389;51.490;7.338;2024-03-23T05:01:43;1999.90;;;999.90;;
2762;SDS011;1389;51.490;7.338;2024-03-23T05:04:09;1999.90;;;999.90;;
2762;SDS011;1389;51.490;7.338;2024-03-23T05:06:35;1999.90;;;999.90;;
2762;SDS011;1389;51.490;7.338;2024-03-23T05:09:02;1999.90;;;999.90;;
2762;SDS011;1389;51.490;7.338;2024-03-23T05:11:35;1999.90;;;999.90;;
2762;SDS011;1389;51.490;7.338;2024-03-23T05:14:01;1999.90;;;999.90;;
2762;SDS011;1389;51.490;7.338;2024-03-23T05:16:30;1999.90;;;999.90;;
2762;SDS011;1389;51.490;7.338;2024-03-23T05:18:56;1999.90;;;999.90;;
2762;SDS011;1389;51.490;7.338;2024-03-23T05:21:23;1999.90;;;999.90;;
2762;SDS011;1389;51.490;7.338;2024-03-23T05:23:49;1999.90;;;999.90;;
2762;SDS011;1389;51.490;7.338;2024-03-23T05:26:16;1999.90;;;999.90;;
2762;SDS011;1389;51.490;7.338;2024-03-23T05:28:43;1999.90;;;999.90;;
2762;SDS011;1389;51.490;7.338;2024-03-23T05:31:09;1999.90;;;999.90;;
2762;SDS011;1389;51.490;7.338;2024-03-23T05:33:36;1999.90;;;999.90;;
2762;SDS011;1389;51.490;7.338;2024-03-23T05:36:03;1999.90;;;999.90;;
2762;SDS011;1389;51.490;7.338;2024-03-23T05:38:30;1999.90;;;999.90;;
2762;SDS011;1389;51.490;7.338;2024-03-23T05:40:58;1999.90;;;999.90;;
2762;SDS011;1389;51.490;7.338;2024-03-23T05:43:25;1999.90;;;999.90;;
2762;SDS011;1389;51.490;7.338;2024-03-23T05:45:59;1999.90;;;999.90;;
2762;SDS011;1389;51.490;7.338;2024-03-23T05:48:27;1999.90;;;999.90;;
2762;SDS011;1389;51.490;7.338;2024-03-23T05:50:53;1999.90;;;999.90;;
2762;SDS011;1389;51.490;7.338;2024-03-23T05:53:20;1999.90;;;999.90;;
2762;SDS011;1389;51.490;7.338;2024-03-23T05:55:46;1999.90;;;999.90;;
2762;SDS011;1389;51.490;7.338;2024-03-23T05:58:16;1999.90;;;999.90;;
2762;SDS011;1389;51.490;7.338;2024-03-23T06:00:43;1999.90;;;999.90;;
2762;SDS011;1389;51.490;7.338;2024-03-23T06:03:10;1999.90;;;999.90;;
2762;SDS011;1389;51.490;7.338;2024-03-23T06:05:40;1999.90;;;999.90;;
2762;SDS011;1389;51.490;7.338;2024-03-23T06:08:08;1999.90;;;999.90;;
2762;SDS011;1389;51.490;7.338;2024-03-23T06:10:35;1999.90;;;999.90;;
2762;SDS011;1389;51.490;7.338;2024-03-23T06:13:01;1999.90;;;999.90;;
2762;SDS011;1389;51.490;7.338;2024-03-23T06:15:28;1999.90;;;999.90;;
2762;SDS011;1389;51.490;7.338;2024-03-23T06:17:56;1999.90;;;999.90;;
2762;SDS011;1389;51.490;7.338;2024-03-23T06:20:24;1999.90;;;999.90;;
2762;SDS011;1389;51.490;7.338;2024-03-23T06:22:50;1999.90;;;999.90;;
2762;SDS011;1389;51.490;7.338;2024-03-23T06:25:17;1999.90;;;999.90;;
2762;SDS011;1389;51.490;7.338;2024-03-23T06:27:43;1999.90;;;999.90;;
2762;SDS011;1389;51.490;7.338;2024-03-23T06:30:11;1999.90;;;999.90;;
2762;SDS011;1389;51.490;7.338;2024-03-23T06:32:40;1999.90;;;999.90;;
2762;SDS011;1389;51.490;7.338;2024-03-23T06:35:07;1999.90;;;999.90;;
2762;SDS011;1389;51.490;7.338;2024-03-23T06:37:35;1999.90;;;999.90;;
2762;SDS011;1389;51.490;7.338;2024-03-23T06:40:03;1999.90;;;999.90;;
2762;SDS011;1389;51.490;7.338;2024-03-23T06:42:32;1999.90;;;999.90;;
2762;SDS011;1389;51.490;7.338;2024-03-23T06:44:59;1999.90;;;999.90;;
2762;SDS011;1389;51.490;7.338;2024-03-23T06:47:26;1999.90;;;999.90;;
2762;SDS011;1389;51.490;7.338;2024-03-23T06:49:55;1999.90;;;999.90;;
2762;SDS011;1389;51.490;7.338;2024-03-23T06:52:28;1999.90;;;999.90;;
2762;SDS011;1389;51.490;7.338;2024-03-23T06:55:08;1999.90;;;999.90;;
2762;SDS011;1389;51.490;7.338;2024-03-23T06:57:56;1999.90;;;999.90;;
2762;SDS011;1389;51.490;7.338;2024-03-23T07:00:22;1999.90;;;999.90;;
2762;SDS011;1389;51.490;7.338;2024-03-23T07:02:51;1999.90;;;999.90;;
2762;SDS011;1389;51.490;7.338;2024-03-23T07:05:27;1999.90;;;999.90;;
2762;SDS011;1389;51.490;7.338;2024-03-23T07:07:53;1999.90;;;999.90;;
2762;SDS011;1389;51.490;7.338;2024-03-23T07:10:19;1999.90;;;999.90;;
2762;SDS011;1389;51.490;7.338;2024-03-23T07:12:46;1999.90;;;999.90;;
2762;SDS011;1389;51.490;7.338;2024-03-23T07:15:12;1999.90;;;999.90;;
2762;SDS011;1389;51.490;7.338;2024-03-23T07:17:39;1999.90;;;999.90;;
2762;SDS011;1389;51.490;7.338;2024-03-23T07:20:05;1999.90;;;999.90;;
2762;SDS011;1389;51.490;7.338;2024-03-23T07:22:38;1999.90;;;999.90;;
2762;SDS011;1389;51.490;7.338;2024-03-23T07:25:07;1999.90;;;999.90;;
2762;SDS011;1389;51.490;7.338;2024-03-23T07:27:36;1999.90;;;999.90;;
2762;SDS011;1389;51.490;7.338;2024-03-23T07:30:44;1999.90;;;999.90;;
2762;SDS011;1389;51.490;7.338;2024-03-23T07:33:17;1999.90;;;999.90;;
2762;SDS011;1389;51.490;7.338;2024-03-23T07:35:54;1999.90;;;999.90;;
2762;SDS011;1389;51.490;7.338;2024-03-23T07:38:21;1999.90;;;999.90;;
2762;SDS011;1389;51.490;7.338;2024-03-23T07:40:47;1999.90;;;999.90;;
2762;SDS011;1389;51.490;7.338;2024-03-23T07:43:21;1999.90;;;999.90;;
2762;SDS011;1389;51.490;7.338;2024-03-23T07:45:51;1999.90;;;999.90;;
2762;SDS011;1389;51.490;7.338;2024-03-23T07:48:21;1999.90;;;999.90;;
2762;SDS011;1389;51.490;7.338;2024-03-23T07:53:27;1999.90;;;999.90;;
2762;SDS011;1389;51.490;7.338;2024-03-23T07:58:30;1999.90;;;999.90;;
2762;SDS011;1389;51.490;7.338;2024-03-23T08:01:07;1999.90;;;999.90;;
2762;SDS011;1389;51.490;7.338;2024-03-23T08:03:36;1999.90;;;999.90;;
2762;SDS011;1389;51.490;7.338;2024-03-23T08:06:21;1999.90;;;999.90;;
2762;SDS011;1389;51.490;7.338;2024-03-23T08:08:56;1999.90;;;999.90;;
2762;SDS011;1389;51.490;7.338;2024-03-23T08:11:27;1999.90;;;999.90;;
2762;SDS011;1389;51.490;7.338;2024-03-23T08:14:01;1999.90;;;999.90;;
2762;SDS011;1389;51.490;7.338;2024-03-23T08:16:33;1999.90;;;999.90;;
2762;SDS011;1389;51.490;7.338;2024-03-23T08:19:01;1999.90;;;999.90;;
2762;SDS011;1389;51.490;7.338;2024-03-23T08:21:29;1999.90;;;999.90;;
2762;SDS011;1389;51.490;7.338;2024-03-23T08:23:55;1999.90;;;999.90;;
2762;SDS011;1389;51.490;7.338;2024-03-23T08:26:22;1999.90;;;999.90;;
2762;SDS011;1389;51.490;7.338;2024-03-23T08:28:48;1999.90;;;999.90;;
2762;SDS011;1389;51.490;7.338;2024-03-23T08:31:21;1999.90;;;999.90;;
2762;SDS011;1389;51.490;7.338;2024-03-23T09:10:21;1999.90;;;999.90;;
2762;SDS011;1389;51.490;7.338;2024-03-23T09:12:48;1999.90;;;999.90;;
2762;SDS011;1389;51.490;7.338;2024-03-23T09:15:15;1999.90;;;999.90;;
2762;SDS011;1389;51.490;7.338;2024-03-23T09:17:42;1999.90;;;999.90;;
2762;SDS011;1389;51.490;7.338;2024-03-23T09:20:10;1999.90;;;999.90;;
2762;SDS011;1389;51.490;7.338;2024-03-23T09:22:36;1999.90;;;999.90;;
2762;SDS011;1389;51.490;7.338;2024-03-23T09:25:03;1999.90;;;999.90;;
2762;SDS011;1389;51.490;7.338;2024-03-23T09:27:30;1999.90;;;999.90;;
2762;SDS011;1389;51.490;7.338;2024-03-23T09:29:57;1999.90;;;999.90;;
2762;SDS011;1389;51.490;7.338;2024-03-23T09:32:25;1999.90;;;999.90;;
2762;SDS011;1389;51.490;7.338;2024-03-23T09:34:51;1999.90;;;999.90;;
2762;SDS011;1389;51.490;7.338;2024-03-23T09:37:26;1999.90;;;999.90;;
2762;SDS011;1389;51.490;7.338;2024-03-23T09:40:00;1999.90;;;999.90;;
2762;SDS011;1389;51.490;7.338;2024-03-23T09:42:38;1999.90;;;999.90;;
2762;SDS011;1389;51.490;7.338;2024-03-23T09:45:06;1999.90;;;999.90;;
2762;SDS011;1389;51.490;7.338;2024-03-23T09:47:39;1999.90;;;999.90;;
2762;SDS011;1389;51.490;7.338;2024-03-23T09:50:06;1999.90;;;999.90;;
2762;SDS011;1389;51.490;7.338;2024-03-23T09:52:34;1999.90;;;999.90;;
2762;SDS011;1389;51.490;7.338;2024-03-23T09:55:15;1999.90;;;999.90;;
2762;SDS011;1389;51.490;7.338;2024-03-23T09:57:42;1999.90;;;999.90;;
2762;SDS011;1389;51.490;7.338;2024-03-23T10:00:08;1999.90;;;999.90;;
2762;SDS011;1389;51.490;7.338;2024-03-23T10:02:35;1999.90;;;999.90;;
2762;SDS011;1389;51.490;7.338;2024-03-23T10:05:03;1999.90;;;999.90;;
2762;SDS011;1389;51.490;7.338;2024-03-23T10:07:30;1999.90;;;999.90;;
2762;SDS011;1389;51.490;7.338;2024-03-23T10:09:59;1999.90;;;999.90;;
2762;SDS011;1389;51.490;7.338;2024-03-23T10:12:39;1999.90;;;999.90;;
2762;SDS011;1389;51.490;7.338;2024-03-23T10:15:25;1999.90;;;999.90;;
2762;SDS011;1389;51.490;7.338;2024-03-23T10:20:39;1999.90;;;999.90;;
2762;SDS011;1389;51.490;7.338;2024-03-23T10:23:07;1999.90;;;999.90;;
2762;SDS011;1389;51.490;7.338;2024-03-23T10:26:14;1999.90;;;999.90;;
2762;SDS011;1389;51.490;7.338;2024-03-23T10:31:30;1999.90;;;999.90;;
2762;SDS011;1389;51.490;7.338;2024-03-23T10:34:30;1999.90;;;999.90;;
2762;SDS011;1389;51.490;7.338;2024-03-23T10:37:22;1999.90;;;999.90;;
2762;SDS011;1389;51.490;7.338;2024-03-23T10:39:48;1999.90;;;999.90;;
2762;SDS011;1389;51.490;7.338;2024-03-23T10:42:17;1999.90;;;999.90;;
2762;SDS011;1389;51.490;7.338;2024-03-23T10:44:52;1999.90;;;999.90;;
2762;SDS011;1389;51.490;7.338;2024-03-23T10:47:23;1999.90;;;999.90;;
2762;SDS011;1389;51.490;7.338;2024-03-23T10:50:03;1999.90;;;999.90;;
2762;SDS011;1389;51.490;7.338;2024-03-23T10:52:33;1999.90;;;999.90;;
2762;SDS011;1389;51.490;7.338;2024-03-23T10:55:02;1999.90;;;999.90;;
2762;SDS011;1389;51.490;7.338;2024-03-23T10:57:42;1999.90;;;999.90;;
2762;SDS011;1389;51.490;7.338;2024-03-23T11:00:13;1999.90;;;999.90;;
2762;SDS011;1389;51.490;7.338;2024-03-23T11:02:49;1999.90;;;999.90;;
2762;SDS011;1389;51.490;7.338;2024-03-23T11:05:31;1999.90;;;999.90;;
2762;SDS011;1389;51.490;7.338;2024-03-23T11:08:03;1999.90;;;999.90;;
2762;SDS011;1389;51.490;7.338;2024-03-23T11:10:34;1999.90;;;999.90;;
2762;SDS011;1389;51.490;7.338;2024-03-23T11:20:53;1999.90;;;999.90;;
2762;SDS011;1389;51.490;7.338;2024-03-23T11:23:29;1999.90;;;999.90;;
2762;SDS011;1389;51.490;7.338;2024-03-23T11:25:57;1999.90;;;999.90;;
2762;SDS011;1389;51.490;7.338;2024-03-23T11:28:23;1999.90;;;999.90;;
2762;SDS011;1389;51.490;7.338;2024-03-23T11:30:50;1999.90;;;999.90;;
2762;SDS011;1389;51.490;7.338;2024-03-23T11:33:19;1999.90;;;999.90;;
2762;SDS011;1389;51.490;7.338;2024-03-23T11:35:46;1999.90;;;999.90;;
2762;SDS011;1389;51.490;7.338;2024-03-23T11:38:15;1999.90;;;999.90;;
2762;SDS011;1389;51.490;7.338;2024-03-23T11:43:18;1999.90;;;999.90;;
2762;SDS011;1389;51.490;7.338;2024-03-23T11:45:45;1999.90;;;999.90;;
2762;SDS011;1389;51.490;7.338;2024-03-23T11:48:13;1999.90;;;999.90;;
2762;SDS011;1389;51.490;7.338;2024-03-23T11:50:40;1999.90;;;999.90;;
2762;SDS011;1389;51.490;7.338;2024-03-23T11:53:08;1999.90;;;999.90;;
2762;SDS011;1389;51.490;7.338;2024-03-23T11:55:50;1999.90;;;999.90;;
2762;SDS011;1389;51.490;7.338;2024-03-23T11:58:17;1999.90;;;999.90;;
2762;SDS011;1389;51.490;7.338;2024-03-23T12:01:09;1999.90;;;999.90;;
2762;SDS011;1389;51.490;7.338;2024-03-23T12:03:31;1999.90;;;999.90;;
2762;SDS011;1389;51.490;7.338;2024-03-23T12:05:59;1999.90;;;999.90;;
2762;SDS011;1389;51.490;7.338;2024-03-23T12:08:34;1999.90;;;999.90;;
2762;SDS011;1389;51.490;7.338;2024-03-23T12:11:05;1999.90;;;999.90;;
2762;SDS011;1389;51.490;7.338;2024-03-23T12:13:31;1999.90;;;999.90;;
2762;SDS011;1389;51.490;7.338;2024-03-23T12:16:14;1999.90;;;999.90;;
2762;SDS011;1389;51.490;7.338;2024-03-23T12:18:49;1999.90;;;999.90;;
2762;SDS011;1389;51.490;7.338;2024-03-23T12:21:20;1999.90;;;999.90;;
2762;SDS011;1389;51.490;7.338;2024-03-23T12:23:48;1999.90;;;999.90;;
2762;SDS011;1389;51.490;7.338;2024-03-23T12:26:15;1999.90;;;999.90;;
2762;SDS011;1389;51.490;7.338;2024-03-23T12:28:43;1999.90;;;999.90;;
2762;SDS011;1389;51.490;7.338;2024-03-23T12:31:10;1999.90;;;999.90;;
2762;SDS011;1389;51.490;7.338;2024-03-23T12:33:36;1999.90;;;999.90;;
2762;SDS011;1389;51.490;7.338;2024-03-23T12:36:03;1999.90;;;999.90;;
2762;SDS011;1389;51.490;7.338;2024-03-23T12:38:30;1999.90;;;999.90;;
2762;SDS011;1389;51.490;7.338;2024-03-23T12:40:56;1999.90;;;999.90;;
2762;SDS011;1389;51.490;7.338;2024-03-23T12:43:22;1999.90;;;999.90;;
2762;SDS011;1389;51.490;7.338;2024-03-23T12:45:49;1999.90;;;999.90;;
2762;SDS011;1389;51.490;7.338;2024-03-23T12:48:16;1999.90;;;999.90;;
2762;SDS011;1389;51.490;7.338;2024-03-23T12:50:42;1999.90;;;999.90;;
2762;SDS011;1389;51.490;7.338;2024-03-23T12:53:09;1999.90;;;999.90;;
2762;SDS011;1389;51.490;7.338;2024-03-23T12:55:35;1999.90;;;999.90;;
2762;SDS011;1389;51.490;7.338;2024-03-23T12:58:02;1999.90;;;999.90;;
2762;SDS011;1389;51.490;7.338;2024-03-23T13:00:34;1999.90;;;999.90;;
2762;SDS011;1389;51.490;7.338;2024-03-23T14:09:00;1999.90;;;999.90;;
2762;SDS011;1389;51.490;7.338;2024-03-23T14:11:29;1999.90;;;999.90;;
2762;SDS011;1389;51.490;7.338;2024-03-23T14:13:57;1999.90;;;999.90;;
2762;SDS011;1389;51.490;7.338;2024-03-23T14:16:24;1999.90;;;999.90;;
2762;SDS011;1389;51.490;7.338;2024-03-23T14:18:50;1999.90;;;999.90;;
2762;SDS011;1389;51.490;7.338;2024-03-23T14:21:17;1999.90;;;999.90;;
2762;SDS011;1389;51.490;7.338;2024-03-23T14:23:44;1999.90;;;999.90;;
2762;SDS011;1389;51.490;7.338;2024-03-23T14:49:37;1999.90;;;999.90;;
2762;SDS011;1389;51.490;7.338;2024-03-23T14:52:04;1999.90;;;999.90;;
2762;SDS011;1389;51.490;7.338;2024-03-23T14:54:30;1999.90;;;999.90;;
2762;SDS011;1389;51.490;7.338;2024-03-23T14:56:57;1999.90;;;999.90;;
2762;SDS011;1389;51.490;7.338;2024-03-23T14:59:23;1999.90;;;999.90;;
2762;SDS011;1389;51.490;7.338;2024-03-23T15:01:50;1999.90;;;999.90;;
2762;SDS011;1389;51.490;7.338;2024-03-23T15:04:16;1999.90;;;999.90;;
2762;SDS011;1389;51.490;7.338;2024-03-23T15:06:43;1999.90;;;999.90;;
2762;SDS011;1389;51.490;7.338;2024-03-23T15:09:11;1999.90;;;999.90;;
2762;SDS011;1389;51.490;7.338;2024-03-23T15:11:39;1999.90;;;999.90;;
2762;SDS011;1389;51.490;7.338;2024-03-23T15:14:05;1999.90;;;999.90;;
2762;SDS011;1389;51.490;7.338;2024-03-23T15:16:32;1999.90;;;999.90;;
2762;SDS011;1389;51.490;7.338;2024-03-23T15:18:59;1999.90;;;999.90;;
2762;SDS011;1389;51.490;7.338;2024-03-23T15:21:25;1999.90;;;999.90;;
2762;SDS011;1389;51.490;7.338;2024-03-23T15:23:52;1999.90;;;999.90;;
2762;SDS011;1389;51.490;7.338;2024-03-23T15:26:18;1641.60;;;884.85;;
2762;SDS011;1389;51.490;7.338;2024-03-23T15:28:49;1482.55;;;959.53;;
2762;SDS011;1389;51.490;7.338;2024-03-23T15:31:24;1999.90;;;999.90;;
2762;SDS011;1389;51.490;7.338;2024-03-23T15:33:52;1999.90;;;999.90;;
2762;SDS011;1389;51.490;7.338;2024-03-23T15:36:18;1508.17;;;833.17;;
2762;SDS011;1389;51.490;7.338;2024-03-23T15:38:45;1226.10;;;941.50;;
2762;SDS011;1389;51.490;7.338;2024-03-23T15:41:14;1999.90;;;999.90;;
2762;SDS011;1389;51.490;7.338;2024-03-23T15:43:40;1217.30;;;933.10;;
2762;SDS011;1389;51.490;7.338;2024-03-23T15:46:07;1999.90;;;999.90;;
2762;SDS011;1389;51.490;7.338;2024-03-23T15:48:36;1330.95;;;999.90;;
2762;SDS011;1389;51.490;7.338;2024-03-23T15:51:03;1999.90;;;999.90;;
2762;SDS011;1389;51.490;7.338;2024-03-23T15:53:29;1999.90;;;999.90;;
2762;SDS011;1389;51.490;7.338;2024-03-23T15:56:02;1999.90;;;999.90;;
2762;SDS011;1389;51.490;7.338;2024-03-23T15:58:31;1999.90;;;999.90;;
2762;SDS011;1389;51.490;7.338;2024-03-23T16:03:29;1999.90;;;999.90;;
2762;SDS011;1389;51.490;7.338;2024-03-23T16:05:59;1999.90;;;999.90;;
2762;SDS011;1389;51.490;7.338;2024-03-23T16:08:26;1147.55;;;549.97;;
2762;SDS011;1389;51.490;7.338;2024-03-23T16:10:53;1999.90;;;999.90;;
2762;SDS011;1389;51.490;7.338;2024-03-23T16:13:20;718.65;;;318.08;;
2762;SDS011;1389;51.490;7.338;2024-03-23T16:15:59;678.22;;;277.58;;
2762;SDS011;1389;51.490;7.338;2024-03-23T16:18:28;678.55;;;277.90;;
2762;SDS011;1389;51.490;7.338;2024-03-23T16:20:56;678.67;;;277.65;;
2762;SDS011;1389;51.490;7.338;2024-03-23T16:23:23;682.25;;;282.05;;
2762;SDS011;1389;51.490;7.338;2024-03-23T16:46:39;248.47;;;38.00;;
2762;SDS011;1389;51.490;7.338;2024-03-23T16:49:09;247.10;;;37.57;;
2762;SDS011;1389;51.490;7.338;2024-03-23T16:51:36;245.57;;;35.83;;
2762;SDS011;1389;51.490;7.338;2024-03-23T16:54:02;255.50;;;47.97;;
2762;SDS011;1389;51.490;7.338;2024-03-23T16:56:29;246.23;;;36.57;;
2762;SDS011;1389;51.490;7.338;2024-03-23T16:58:55;248.17;;;38.10;;
2762;SDS011;1389;51.490;7.338;2024-03-23T17:01:22;248.00;;;36.90;;
2762;SDS011;1389;51.490;7.338;2024-03-23T17:03:52;258.90;;;48.70;;
2762;SDS011;1389;51.490;7.338;2024-03-23T18:13:20;896.83;;;376.63;;
2762;SDS011;1389;51.490;7.338;2024-03-23T18:15:59;770.60;;;316.65;;
2762;SDS011;1389;51.490;7.338;2024-03-23T18:18:26;363.07;;;91.20;;
2762;SDS011;1389;51.490;7.338;2024-03-23T18:21:00;771.55;;;317.10;;
2762;SDS011;1389;51.490;7.338;2024-03-23T18:23:27;909.17;;;391.60;;
2762;SDS011;1389;51.490;7.338;2024-03-23T18:25:54;1999.90;;;999.90;;
2762;SDS011;1389;51.490;7.338;2024-03-23T18:28:27;1999.90;;;999.90;;
2762;SDS011;1389;51.490;7.338;2024-03-23T18:30:58;1999.90;;;999.90;;
2762;SDS011;1389;51.490;7.338;2024-03-23T18:33:32;1999.90;;;999.90;;
2762;SDS011;1389;51.490;7.338;2024-03-23T18:35:58;1999.90;;;999.90;;
2762;SDS011;1389;51.490;7.338;2024-03-23T18:38:26;1999.90;;;999.90;;
2762;SDS011;1389;51.490;7.338;2024-03-23T18:40:54;1999.90;;;999.90;;
2762;SDS011;1389;51.490;7.338;2024-03-23T18:43:21;1999.90;;;999.90;;
2762;SDS011;1389;51.490;7.338;2024-03-23T18:45:51;1999.90;;;999.90;;
2762;SDS011;1389;51.490;7.338;2024-03-23T18:48:18;1999.90;;;999.90;;
2762;SDS011;1389;51.490;7.338;2024-03-23T18:50:44;1999.90;;;999.90;;
2762;SDS011;1389;51.490;7.338;2024-03-23T18:53:14;1999.90;;;999.90;;
2762;SDS011;1389;51.490;7.338;2024-03-23T18:55:41;1999.90;;;999.90;;
2762;SDS011;1389;51.490;7.338;2024-03-23T18:58:09;1999.90;;;999.90;;
2762;SDS011;1389;51.490;7.338;2024-03-23T19:00:35;1999.90;;;999.90;;
2762;SDS011;1389;51.490;7.338;2024-03-23T19:03:04;1999.90;;;999.90;;
2762;SDS011;1389;51.490;7.338;2024-03-23T19:05:34;1999.90;;;999.90;;
2762;SDS011;1389;51.490;7.338;2024-03-23T19:08:03;1999.90;;;999.90;;
2762;SDS011;1389;51.490;7.338;2024-03-23T19:10:30;1999.90;;;999.90;;